메인 페이지
METAR-TAF:

METAR-TAF

공항 :

자이푸르, 인도

위도: 26-49N, 경도: 075-48E, 고도: 385m

현재 날씨관측

예보는 1 시간 27분 전, 18:00시(UTC)에 발표되었습니다.
3kt
온도 28°C
습도 27%
기압 1013 hPa
시정: 2500m
고도 10000ft 상공 구름 보통
연무

METAR: VIJP 051800Z 09003KT 2500 HZ SCT100 28/07 Q1013 NOSIG

시각: 00:57 (19:27 UTC)

예보

예보는 8 시간 27분 전, 11:00시(UTC)에 발표되었습니다.
예보 대상 시간: 05일 12시부터 05일 21시까지 (UTC)
5kt
시정: 5000m
고도 10000ft 상공 구름 조금
연무
전환 중
05일 13시부터 05일 15시까지 (UTC)
4kt
시정: 3000m
연무

TAF: VIJP 051100Z 0512/0521 18005KT 5000 HZ FEW100 BECMG 0513/0515 09004KT 3000 HZ

4,000개 이상의 공항 관측 자료 및 예보 (METAR 및 TAF 보고).

지도상에서 검색 가능한 기상관측소가 노란 점과 빨간 점으로 표시되어 있습니다.

기상관측소 명을 보려면 표시 위로 마우스를 이동하세요.

날씨 관측과 예보를 보려면 클릭하세요.

지도 변경 : 확대하려면 엑스 표시가 있는 녹색 버튼, 축소하려면 빼기 표시가 있는 녹색 버튼, 다음 페이지의 지도를 보려면 녹색 화살표를 클릭하세요.


METAR-TAF: